sensor_id;sensor_type;location;lat;lon;timestamp;P1;durP1;ratioP1;P2;durP2;ratioP2
14516;SDS011;7344;50.864;4.362;2024-01-07T00:02:15;15.67;;;11.60;;
14516;SDS011;7344;50.864;4.362;2024-01-07T00:04:41;14.20;;;11.43;;
14516;SDS011;7344;50.864;4.362;2024-01-07T00:07:07;13.33;;;11.33;;
14516;SDS011;7344;50.864;4.362;2024-01-07T00:09:33;16.27;;;11.37;;
14516;SDS011;7344;50.864;4.362;2024-01-07T00:11:58;17.23;;;12.43;;
14516;SDS011;7344;50.864;4.362;2024-01-07T00:14:24;14.83;;;11.50;;
14516;SDS011;7344;50.864;4.362;2024-01-07T00:16:50;13.97;;;11.27;;
14516;SDS011;7344;50.864;4.362;2024-01-07T00:19:15;13.47;;;11.70;;
14516;SDS011;7344;50.864;4.362;2024-01-07T00:21:41;15.93;;;10.73;;
14516;SDS011;7344;50.864;4.362;2024-01-07T00:24:06;13.77;;;10.60;;
14516;SDS011;7344;50.864;4.362;2024-01-07T00:26:32;15.60;;;12.10;;
14516;SDS011;7344;50.864;4.362;2024-01-07T00:28:57;13.93;;;11.50;;
14516;SDS011;7344;50.864;4.362;2024-01-07T00:31:23;14.93;;;12.03;;
14516;SDS011;7344;50.864;4.362;2024-01-07T00:33:49;14.00;;;12.17;;
14516;SDS011;7344;50.864;4.362;2024-01-07T00:36:14;14.07;;;11.47;;
14516;SDS011;7344;50.864;4.362;2024-01-07T00:38:40;14.63;;;11.77;;
14516;SDS011;7344;50.864;4.362;2024-01-07T00:41:05;16.23;;;13.17;;
14516;SDS011;7344;50.864;4.362;2024-01-07T00:43:31;13.33;;;11.50;;
14516;SDS011;7344;50.864;4.362;2024-01-07T00:45:56;14.73;;;11.47;;
14516;SDS011;7344;50.864;4.362;2024-01-07T00:48:22;16.60;;;12.07;;
14516;SDS011;7344;50.864;4.362;2024-01-07T00:50:47;14.20;;;12.00;;
14516;SDS011;7344;50.864;4.362;2024-01-07T00:53:13;15.60;;;13.03;;
14516;SDS011;7344;50.864;4.362;2024-01-07T00:55:38;14.73;;;12.20;;
14516;SDS011;7344;50.864;4.362;2024-01-07T00:58:04;12.77;;;11.40;;
14516;SDS011;7344;50.864;4.362;2024-01-07T01:00:29;14.80;;;12.13;;
14516;SDS011;7344;50.864;4.362;2024-01-07T01:02:55;14.47;;;11.87;;
14516;SDS011;7344;50.864;4.362;2024-01-07T01:05:21;15.67;;;12.77;;
14516;SDS011;7344;50.864;4.362;2024-01-07T01:07:46;14.57;;;12.60;;
14516;SDS011;7344;50.864;4.362;2024-01-07T01:10:12;17.87;;;13.40;;
14516;SDS011;7344;50.864;4.362;2024-01-07T01:12:39;17.33;;;12.50;;
14516;SDS011;7344;50.864;4.362;2024-01-07T01:15:05;15.83;;;12.23;;
14516;SDS011;7344;50.864;4.362;2024-01-07T01:17:31;16.50;;;12.23;;
14516;SDS011;7344;50.864;4.362;2024-01-07T01:19:56;15.17;;;12.07;;
14516;SDS011;7344;50.864;4.362;2024-01-07T01:22:22;14.63;;;11.80;;
14516;SDS011;7344;50.864;4.362;2024-01-07T01:24:47;15.70;;;12.37;;
14516;SDS011;7344;50.864;4.362;2024-01-07T01:27:14;15.87;;;12.37;;
14516;SDS011;7344;50.864;4.362;2024-01-07T01:29:40;14.30;;;11.30;;
14516;SDS011;7344;50.864;4.362;2024-01-07T01:32:06;13.63;;;11.70;;
14516;SDS011;7344;50.864;4.362;2024-01-07T01:34:31;14.67;;;11.27;;
14516;SDS011;7344;50.864;4.362;2024-01-07T01:36:57;13.87;;;11.40;;
14516;SDS011;7344;50.864;4.362;2024-01-07T01:39:23;15.80;;;12.13;;
14516;SDS011;7344;50.864;4.362;2024-01-07T01:41:48;16.53;;;12.63;;
14516;SDS011;7344;50.864;4.362;2024-01-07T01:44:14;13.70;;;11.53;;
14516;SDS011;7344;50.864;4.362;2024-01-07T01:46:39;16.10;;;12.87;;
14516;SDS011;7344;50.864;4.362;2024-01-07T01:49:06;16.57;;;12.97;;
14516;SDS011;7344;50.864;4.362;2024-01-07T01:51:32;17.80;;;13.67;;
14516;SDS011;7344;50.864;4.362;2024-01-07T01:53:59;14.83;;;12.70;;
14516;SDS011;7344;50.864;4.362;2024-01-07T01:56:26;16.77;;;12.43;;
14516;SDS011;7344;50.864;4.362;2024-01-07T01:58:52;15.20;;;12.33;;
14516;SDS011;7344;50.864;4.362;2024-01-07T02:01:18;15.63;;;12.53;;
14516;SDS011;7344;50.864;4.362;2024-01-07T02:03:44;18.03;;;13.43;;
14516;SDS011;7344;50.864;4.362;2024-01-07T02:06:09;18.47;;;13.47;;
14516;SDS011;7344;50.864;4.362;2024-01-07T02:08:38;18.23;;;13.07;;
14516;SDS011;7344;50.864;4.362;2024-01-07T02:11:14;20.17;;;14.23;;
14516;SDS011;7344;50.864;4.362;2024-01-07T02:13:44;20.67;;;14.97;;
14516;SDS011;7344;50.864;4.362;2024-01-07T02:16:09;17.23;;;13.23;;
14516;SDS011;7344;50.864;4.362;2024-01-07T02:18:35;18.20;;;12.60;;
14516;SDS011;7344;50.864;4.362;2024-01-07T02:21:03;16.20;;;11.93;;
14516;SDS011;7344;50.864;4.362;2024-01-07T02:23:28;15.10;;;10.00;;
14516;SDS011;7344;50.864;4.362;2024-01-07T02:25:54;14.93;;;11.30;;
14516;SDS011;7344;50.864;4.362;2024-01-07T02:28:20;15.47;;;11.47;;
14516;SDS011;7344;50.864;4.362;2024-01-07T02:30:45;16.43;;;11.97;;
14516;SDS011;7344;50.864;4.362;2024-01-07T02:33:11;15.63;;;12.00;;
14516;SDS011;7344;50.864;4.362;2024-01-07T02:35:36;16.73;;;11.77;;
14516;SDS011;7344;50.864;4.362;2024-01-07T02:38:02;17.60;;;12.03;;
14516;SDS011;7344;50.864;4.362;2024-01-07T02:40:27;15.07;;;11.87;;
14516;SDS011;7344;50.864;4.362;2024-01-07T02:42:53;15.33;;;11.83;;
14516;SDS011;7344;50.864;4.362;2024-01-07T02:45:20;16.63;;;12.37;;
14516;SDS011;7344;50.864;4.362;2024-01-07T02:47:46;20.03;;;13.17;;
14516;SDS011;7344;50.864;4.362;2024-01-07T02:50:12;18.40;;;13.33;;
14516;SDS011;7344;50.864;4.362;2024-01-07T02:52:38;16.33;;;12.87;;
14516;SDS011;7344;50.864;4.362;2024-01-07T02:55:03;17.97;;;13.57;;
14516;SDS011;7344;50.864;4.362;2024-01-07T02:57:29;16.10;;;12.50;;
14516;SDS011;7344;50.864;4.362;2024-01-07T02:59:54;18.30;;;12.97;;
14516;SDS011;7344;50.864;4.362;2024-01-07T03:02:20;18.20;;;13.50;;
14516;SDS011;7344;50.864;4.362;2024-01-07T03:04:45;17.10;;;12.83;;
14516;SDS011;7344;50.864;4.362;2024-01-07T03:07:11;19.80;;;14.70;;
14516;SDS011;7344;50.864;4.362;2024-01-07T03:09:37;17.83;;;13.63;;
14516;SDS011;7344;50.864;4.362;2024-01-07T03:12:02;19.07;;;13.43;;
14516;SDS011;7344;50.864;4.362;2024-01-07T03:14:28;20.00;;;14.07;;
14516;SDS011;7344;50.864;4.362;2024-01-07T03:16:54;19.57;;;14.63;;
14516;SDS011;7344;50.864;4.362;2024-01-07T03:19:19;19.27;;;14.17;;
14516;SDS011;7344;50.864;4.362;2024-01-07T03:21:46;19.43;;;14.30;;
14516;SDS011;7344;50.864;4.362;2024-01-07T03:24:13;19.50;;;14.63;;
14516;SDS011;7344;50.864;4.362;2024-01-07T03:26:38;21.17;;;15.33;;
14516;SDS011;7344;50.864;4.362;2024-01-07T03:29:04;20.07;;;14.83;;
14516;SDS011;7344;50.864;4.362;2024-01-07T03:31:30;21.83;;;15.07;;
14516;SDS011;7344;50.864;4.362;2024-01-07T03:33:55;20.33;;;14.73;;
14516;SDS011;7344;50.864;4.362;2024-01-07T03:36:21;21.00;;;15.70;;
14516;SDS011;7344;50.864;4.362;2024-01-07T03:38:46;22.03;;;15.13;;
14516;SDS011;7344;50.864;4.362;2024-01-07T03:41:19;22.93;;;16.43;;
14516;SDS011;7344;50.864;4.362;2024-01-07T03:43:46;27.67;;;17.63;;
14516;SDS011;7344;50.864;4.362;2024-01-07T03:46:12;23.40;;;16.70;;
14516;SDS011;7344;50.864;4.362;2024-01-07T03:48:38;25.03;;;16.70;;
14516;SDS011;7344;50.864;4.362;2024-01-07T03:51:05;25.93;;;18.13;;
14516;SDS011;7344;50.864;4.362;2024-01-07T03:53:30;25.70;;;18.07;;
14516;SDS011;7344;50.864;4.362;2024-01-07T03:55:56;24.00;;;17.07;;
14516;SDS011;7344;50.864;4.362;2024-01-07T03:58:21;26.87;;;18.40;;
14516;SDS011;7344;50.864;4.362;2024-01-07T04:00:47;26.77;;;18.80;;
14516;SDS011;7344;50.864;4.362;2024-01-07T04:03:13;26.63;;;18.43;;
14516;SDS011;7344;50.864;4.362;2024-01-07T04:05:38;25.57;;;17.87;;
14516;SDS011;7344;50.864;4.362;2024-01-07T04:08:04;29.10;;;19.10;;
14516;SDS011;7344;50.864;4.362;2024-01-07T04:10:29;29.40;;;19.80;;
14516;SDS011;7344;50.864;4.362;2024-01-07T04:12:55;27.50;;;18.90;;
14516;SDS011;7344;50.864;4.362;2024-01-07T04:15:21;28.37;;;20.33;;
14516;SDS011;7344;50.864;4.362;2024-01-07T04:17:46;31.10;;;20.67;;
14516;SDS011;7344;50.864;4.362;2024-01-07T04:20:13;30.33;;;19.90;;
14516;SDS011;7344;50.864;4.362;2024-01-07T04:22:39;28.37;;;17.80;;
14516;SDS011;7344;50.864;4.362;2024-01-07T04:25:04;35.10;;;21.90;;
14516;SDS011;7344;50.864;4.362;2024-01-07T04:27:33;35.53;;;22.07;;
14516;SDS011;7344;50.864;4.362;2024-01-07T04:30:00;39.37;;;23.30;;
14516;SDS011;7344;50.864;4.362;2024-01-07T04:32:25;34.83;;;21.90;;
14516;SDS011;7344;50.864;4.362;2024-01-07T04:34:51;37.00;;;22.67;;
14516;SDS011;7344;50.864;4.362;2024-01-07T04:37:17;36.83;;;22.60;;
14516;SDS011;7344;50.864;4.362;2024-01-07T04:39:42;36.53;;;22.17;;
14516;SDS011;7344;50.864;4.362;2024-01-07T04:42:08;40.60;;;23.83;;
14516;SDS011;7344;50.864;4.362;2024-01-07T04:44:33;39.50;;;22.07;;
14516;SDS011;7344;50.864;4.362;2024-01-07T04:46:59;39.17;;;23.10;;
14516;SDS011;7344;50.864;4.362;2024-01-07T04:49:25;40.93;;;25.23;;
14516;SDS011;7344;50.864;4.362;2024-01-07T04:51:51;36.80;;;21.80;;
14516;SDS011;7344;50.864;4.362;2024-01-07T04:54:16;42.00;;;25.13;;
14516;SDS011;7344;50.864;4.362;2024-01-07T04:56:43;39.80;;;24.10;;
14516;SDS011;7344;50.864;4.362;2024-01-07T04:59:09;41.50;;;24.53;;
14516;SDS011;7344;50.864;4.362;2024-01-07T05:01:34;43.33;;;23.70;;
14516;SDS011;7344;50.864;4.362;2024-01-07T05:04:01;43.77;;;25.10;;
14516;SDS011;7344;50.864;4.362;2024-01-07T05:06:27;41.77;;;25.47;;
14516;SDS011;7344;50.864;4.362;2024-01-07T05:08:53;41.30;;;23.50;;
14516;SDS011;7344;50.864;4.362;2024-01-07T05:11:18;42.30;;;22.60;;
14516;SDS011;7344;50.864;4.362;2024-01-07T05:13:44;49.27;;;26.70;;
14516;SDS011;7344;50.864;4.362;2024-01-07T05:16:17;43.87;;;23.90;;
14516;SDS011;7344;50.864;4.362;2024-01-07T05:18:44;38.87;;;23.57;;
14516;SDS011;7344;50.864;4.362;2024-01-07T05:21:13;41.20;;;24.33;;
14516;SDS011;7344;50.864;4.362;2024-01-07T05:23:43;40.33;;;24.33;;
14516;SDS011;7344;50.864;4.362;2024-01-07T05:26:09;39.50;;;20.53;;
14516;SDS011;7344;50.864;4.362;2024-01-07T05:28:36;45.13;;;25.97;;
14516;SDS011;7344;50.864;4.362;2024-01-07T05:31:01;41.20;;;24.20;;
14516;SDS011;7344;50.864;4.362;2024-01-07T05:33:27;41.53;;;24.70;;
14516;SDS011;7344;50.864;4.362;2024-01-07T05:35:53;40.30;;;23.57;;
14516;SDS011;7344;50.864;4.362;2024-01-07T05:38:18;35.43;;;22.83;;
14516;SDS011;7344;50.864;4.362;2024-01-07T05:40:44;38.40;;;20.40;;
14516;SDS011;7344;50.864;4.362;2024-01-07T05:43:09;37.10;;;20.83;;
14516;SDS011;7344;50.864;4.362;2024-01-07T05:45:35;36.73;;;21.97;;
14516;SDS011;7344;50.864;4.362;2024-01-07T05:48:00;39.27;;;22.97;;
14516;SDS011;7344;50.864;4.362;2024-01-07T05:50:26;34.47;;;22.23;;
14516;SDS011;7344;50.864;4.362;2024-01-07T05:52:51;35.37;;;21.87;;
14516;SDS011;7344;50.864;4.362;2024-01-07T05:55:17;37.90;;;23.43;;
14516;SDS011;7344;50.864;4.362;2024-01-07T05:57:43;38.20;;;23.23;;
14516;SDS011;7344;50.864;4.362;2024-01-07T06:00:09;43.93;;;24.73;;
14516;SDS011;7344;50.864;4.362;2024-01-07T06:02:36;41.00;;;24.13;;
14516;SDS011;7344;50.864;4.362;2024-01-07T06:05:02;40.63;;;23.20;;
14516;SDS011;7344;50.864;4.362;2024-01-07T06:07:28;40.43;;;24.43;;
14516;SDS011;7344;50.864;4.362;2024-01-07T06:09:54;41.37;;;24.70;;
14516;SDS011;7344;50.864;4.362;2024-01-07T06:12:20;42.33;;;23.97;;
14516;SDS011;7344;50.864;4.362;2024-01-07T06:14:45;39.60;;;22.60;;
14516;SDS011;7344;50.864;4.362;2024-01-07T06:17:11;40.07;;;21.77;;
14516;SDS011;7344;50.864;4.362;2024-01-07T06:19:37;38.40;;;23.83;;
14516;SDS011;7344;50.864;4.362;2024-01-07T06:22:02;39.57;;;23.37;;
14516;SDS011;7344;50.864;4.362;2024-01-07T06:24:28;39.93;;;24.00;;
14516;SDS011;7344;50.864;4.362;2024-01-07T06:26:53;43.20;;;24.67;;
14516;SDS011;7344;50.864;4.362;2024-01-07T06:29:19;45.70;;;25.57;;
14516;SDS011;7344;50.864;4.362;2024-01-07T06:31:45;44.17;;;23.73;;
14516;SDS011;7344;50.864;4.362;2024-01-07T06:34:10;40.70;;;24.23;;
14516;SDS011;7344;50.864;4.362;2024-01-07T06:36:39;42.90;;;25.37;;
14516;SDS011;7344;50.864;4.362;2024-01-07T06:39:06;44.43;;;24.23;;
14516;SDS011;7344;50.864;4.362;2024-01-07T06:41:32;49.97;;;26.17;;
14516;SDS011;7344;50.864;4.362;2024-01-07T06:43:59;45.20;;;24.63;;
14516;SDS011;7344;50.864;4.362;2024-01-07T06:46:24;46.63;;;24.03;;
14516;SDS011;7344;50.864;4.362;2024-01-07T06:48:50;46.23;;;25.40;;
14516;SDS011;7344;50.864;4.362;2024-01-07T06:51:16;43.10;;;24.77;;
14516;SDS011;7344;50.864;4.362;2024-01-07T06:53:41;45.23;;;25.17;;
14516;SDS011;7344;50.864;4.362;2024-01-07T06:56:07;50.67;;;25.30;;
14516;SDS011;7344;50.864;4.362;2024-01-07T06:58:32;48.13;;;25.40;;
14516;SDS011;7344;50.864;4.362;2024-01-07T07:00:58;46.87;;;25.50;;
14516;SDS011;7344;50.864;4.362;2024-01-07T07:03:23;48.10;;;25.00;;
14516;SDS011;7344;50.864;4.362;2024-01-07T07:05:49;56.57;;;27.93;;
14516;SDS011;7344;50.864;4.362;2024-01-07T07:08:15;46.83;;;24.10;;
14516;SDS011;7344;50.864;4.362;2024-01-07T07:10:41;41.83;;;20.90;;
14516;SDS011;7344;50.864;4.362;2024-01-07T07:13:06;43.57;;;22.90;;
14516;SDS011;7344;50.864;4.362;2024-01-07T07:15:32;47.67;;;25.47;;
14516;SDS011;7344;50.864;4.362;2024-01-07T07:17:57;50.20;;;25.80;;
14516;SDS011;7344;50.864;4.362;2024-01-07T07:20:23;50.57;;;24.27;;
14516;SDS011;7344;50.864;4.362;2024-01-07T07:22:49;46.90;;;26.23;;
14516;SDS011;7344;50.864;4.362;2024-01-07T07:25:14;51.90;;;25.83;;
14516;SDS011;7344;50.864;4.362;2024-01-07T07:27:40;52.23;;;26.13;;
14516;SDS011;7344;50.864;4.362;2024-01-07T07:30:05;52.43;;;25.97;;
14516;SDS011;7344;50.864;4.362;2024-01-07T07:32:31;52.27;;;26.20;;
14516;SDS011;7344;50.864;4.362;2024-01-07T07:34:57;53.07;;;26.27;;
14516;SDS011;7344;50.864;4.362;2024-01-07T07:37:24;53.67;;;25.77;;
14516;SDS011;7344;50.864;4.362;2024-01-07T07:39:50;53.07;;;27.77;;
14516;SDS011;7344;50.864;4.362;2024-01-07T07:42:15;50.80;;;26.13;;
14516;SDS011;7344;50.864;4.362;2024-01-07T07:44:41;50.47;;;24.73;;
14516;SDS011;7344;50.864;4.362;2024-01-07T07:47:07;56.97;;;28.00;;
14516;SDS011;7344;50.864;4.362;2024-01-07T07:49:36;47.27;;;22.87;;
14516;SDS011;7344;50.864;4.362;2024-01-07T07:52:04;49.67;;;24.87;;
14516;SDS011;7344;50.864;4.362;2024-01-07T07:54:31;54.77;;;27.90;;
14516;SDS011;7344;50.864;4.362;2024-01-07T07:56:57;49.90;;;27.53;;
14516;SDS011;7344;50.864;4.362;2024-01-07T07:59:23;40.80;;;17.83;;
14516;SDS011;7344;50.864;4.362;2024-01-07T08:01:48;49.23;;;26.57;;
14516;SDS011;7344;50.864;4.362;2024-01-07T08:04:15;55.40;;;28.03;;
14516;SDS011;7344;50.864;4.362;2024-01-07T08:06:40;58.93;;;29.93;;
14516;SDS011;7344;50.864;4.362;2024-01-07T08:09:07;55.40;;;30.13;;
14516;SDS011;7344;50.864;4.362;2024-01-07T08:11:33;59.50;;;31.10;;
14516;SDS011;7344;50.864;4.362;2024-01-07T08:13:59;59.13;;;31.17;;
14516;SDS011;7344;50.864;4.362;2024-01-07T08:16:26;59.00;;;29.43;;
14516;SDS011;7344;50.864;4.362;2024-01-07T08:18:52;52.23;;;27.60;;
14516;SDS011;7344;50.864;4.362;2024-01-07T08:21:21;54.00;;;28.30;;
14516;SDS011;7344;50.864;4.362;2024-01-07T08:23:48;50.77;;;23.37;;
14516;SDS011;7344;50.864;4.362;2024-01-07T08:26:17;57.63;;;29.47;;
14516;SDS011;7344;50.864;4.362;2024-01-07T08:28:44;57.67;;;28.97;;
14516;SDS011;7344;50.864;4.362;2024-01-07T08:31:10;53.57;;;27.93;;
14516;SDS011;7344;50.864;4.362;2024-01-07T08:33:35;52.77;;;28.47;;
14516;SDS011;7344;50.864;4.362;2024-01-07T08:36:01;51.17;;;23.67;;
14516;SDS011;7344;50.864;4.362;2024-01-07T08:38:26;43.20;;;20.37;;
14516;SDS011;7344;50.864;4.362;2024-01-07T08:40:52;47.87;;;26.40;;
14516;SDS011;7344;50.864;4.362;2024-01-07T08:43:17;52.13;;;25.77;;
14516;SDS011;7344;50.864;4.362;2024-01-07T08:45:43;49.97;;;26.80;;
14516;SDS011;7344;50.864;4.362;2024-01-07T08:48:09;48.00;;;24.50;;
14516;SDS011;7344;50.864;4.362;2024-01-07T08:50:34;47.60;;;24.90;;
14516;SDS011;7344;50.864;4.362;2024-01-07T08:53:00;37.37;;;21.43;;
14516;SDS011;7344;50.864;4.362;2024-01-07T08:55:25;36.53;;;20.47;;
14516;SDS011;7344;50.864;4.362;2024-01-07T08:57:52;37.03;;;20.70;;
14516;SDS011;7344;50.864;4.362;2024-01-07T09:00:18;37.80;;;22.33;;
14516;SDS011;7344;50.864;4.362;2024-01-07T09:02:44;34.50;;;21.37;;
14516;SDS011;7344;50.864;4.362;2024-01-07T09:05:09;37.53;;;21.87;;
14516;SDS011;7344;50.864;4.362;2024-01-07T09:07:37;38.00;;;20.03;;
14516;SDS011;7344;50.864;4.362;2024-01-07T09:10:02;36.93;;;21.90;;
14516;SDS011;7344;50.864;4.362;2024-01-07T09:12:28;31.83;;;18.70;;
14516;SDS011;7344;50.864;4.362;2024-01-07T09:14:54;32.53;;;18.80;;
14516;SDS011;7344;50.864;4.362;2024-01-07T09:17:19;35.03;;;20.83;;
14516;SDS011;7344;50.864;4.362;2024-01-07T09:19:46;30.17;;;19.63;;
14516;SDS011;7344;50.864;4.362;2024-01-07T09:22:12;31.70;;;17.83;;
14516;SDS011;7344;50.864;4.362;2024-01-07T09:24:37;32.73;;;19.30;;
14516;SDS011;7344;50.864;4.362;2024-01-07T09:27:03;23.03;;;14.70;;
14516;SDS011;7344;50.864;4.362;2024-01-07T09:29:29;27.40;;;17.47;;
14516;SDS011;7344;50.864;4.362;2024-01-07T09:31:54;23.17;;;14.13;;
14516;SDS011;7344;50.864;4.362;2024-01-07T09:34:20;35.67;;;19.80;;
14516;SDS011;7344;50.864;4.362;2024-01-07T09:36:45;30.00;;;19.37;;
14516;SDS011;7344;50.864;4.362;2024-01-07T09:39:11;31.40;;;19.13;;
14516;SDS011;7344;50.864;4.362;2024-01-07T09:41:36;34.97;;;20.07;;
14516;SDS011;7344;50.864;4.362;2024-01-07T09:44:02;31.87;;;18.73;;
14516;SDS011;7344;50.864;4.362;2024-01-07T09:46:29;29.27;;;15.57;;
14516;SDS011;7344;50.864;4.362;2024-01-07T09:48:57;31.67;;;17.03;;
14516;SDS011;7344;50.864;4.362;2024-01-07T09:51:22;35.17;;;21.97;;
14516;SDS011;7344;50.864;4.362;2024-01-07T09:53:48;34.77;;;20.47;;
14516;SDS011;7344;50.864;4.362;2024-01-07T09:56:20;24.03;;;14.20;;
14516;SDS011;7344;50.864;4.362;2024-01-07T09:58:49;35.53;;;21.93;;
14516;SDS011;7344;50.864;4.362;2024-01-07T10:01:17;35.43;;;23.77;;
14516;SDS011;7344;50.864;4.362;2024-01-07T10:03:43;33.20;;;18.97;;
14516;SDS011;7344;50.864;4.362;2024-01-07T10:06:10;36.20;;;21.97;;
14516;SDS011;7344;50.864;4.362;2024-01-07T10:08:36;36.73;;;22.17;;
14516;SDS011;7344;50.864;4.362;2024-01-07T10:11:02;34.63;;;20.03;;
14516;SDS011;7344;50.864;4.362;2024-01-07T10:13:29;35.37;;;22.60;;
14516;SDS011;7344;50.864;4.362;2024-01-07T10:15:56;37.83;;;22.83;;
14516;SDS011;7344;50.864;4.362;2024-01-07T10:18:21;27.37;;;16.50;;
14516;SDS011;7344;50.864;4.362;2024-01-07T10:20:47;37.23;;;22.60;;
14516;SDS011;7344;50.864;4.362;2024-01-07T10:23:18;35.93;;;22.67;;
14516;SDS011;7344;50.864;4.362;2024-01-07T10:25:46;32.60;;;21.50;;
14516;SDS011;7344;50.864;4.362;2024-01-07T10:28:12;32.30;;;19.67;;
14516;SDS011;7344;50.864;4.362;2024-01-07T10:30:39;35.47;;;21.23;;
14516;SDS011;7344;50.864;4.362;2024-01-07T10:33:05;32.03;;;20.47;;
14516;SDS011;7344;50.864;4.362;2024-01-07T10:35:33;32.73;;;19.93;;
14516;SDS011;7344;50.864;4.362;2024-01-07T10:38:00;26.37;;;17.80;;
14516;SDS011;7344;50.864;4.362;2024-01-07T10:40:26;29.53;;;19.17;;
14516;SDS011;7344;50.864;4.362;2024-01-07T10:42:52;30.37;;;18.27;;
14516;SDS011;7344;50.864;4.362;2024-01-07T10:45:20;32.20;;;21.20;;
14516;SDS011;7344;50.864;4.362;2024-01-07T10:47:48;35.90;;;22.17;;
14516;SDS011;7344;50.864;4.362;2024-01-07T10:50:15;29.03;;;16.43;;
14516;SDS011;7344;50.864;4.362;2024-01-07T10:52:42;32.57;;;19.80;;
14516;SDS011;7344;50.864;4.362;2024-01-07T10:55:08;33.97;;;21.80;;
14516;SDS011;7344;50.864;4.362;2024-01-07T11:00:01;30.10;;;17.63;;
14516;SDS011;7344;50.864;4.362;2024-01-07T11:02:38;26.40;;;16.37;;
14516;SDS011;7344;50.864;4.362;2024-01-07T11:05:27;33.77;;;20.90;;
14516;SDS011;7344;50.864;4.362;2024-01-07T11:08:00;32.33;;;19.80;;
14516;SDS011;7344;50.864;4.362;2024-01-07T11:10:55;28.00;;;17.03;;
14516;SDS011;7344;50.864;4.362;2024-01-07T11:13:34;28.03;;;14.90;;
14516;SDS011;7344;50.864;4.362;2024-01-07T11:16:03;29.97;;;18.50;;
14516;SDS011;7344;50.864;4.362;2024-01-07T11:18:30;31.87;;;19.50;;
14516;SDS011;7344;50.864;4.362;2024-01-07T11:21:02;31.63;;;20.07;;
14516;SDS011;7344;50.864;4.362;2024-01-07T11:23:35;25.13;;;14.63;;
14516;SDS011;7344;50.864;4.362;2024-01-07T11:26:07;25.27;;;17.30;;
14516;SDS011;7344;50.864;4.362;2024-01-07T11:28:46;25.97;;;18.10;;
14516;SDS011;7344;50.864;4.362;2024-01-07T11:31:15;26.00;;;14.77;;
14516;SDS011;7344;50.864;4.362;2024-01-07T11:33:43;23.90;;;14.63;;
14516;SDS011;7344;50.864;4.362;2024-01-07T11:36:14;28.63;;;18.77;;
14516;SDS011;7344;50.864;4.362;2024-01-07T11:41:11;29.90;;;18.43;;
14516;SDS011;7344;50.864;4.362;2024-01-07T11:43:37;27.33;;;17.87;;
14516;SDS011;7344;50.864;4.362;2024-01-07T11:46:03;25.37;;;14.80;;
14516;SDS011;7344;50.864;4.362;2024-01-07T11:48:29;29.37;;;18.33;;
14516;SDS011;7344;50.864;4.362;2024-01-07T11:50:54;25.20;;;14.20;;
14516;SDS011;7344;50.864;4.362;2024-01-07T11:53:20;25.93;;;16.73;;
14516;SDS011;7344;50.864;4.362;2024-01-07T11:55:46;24.73;;;17.17;;
14516;SDS011;7344;50.864;4.362;2024-01-07T11:58:12;25.33;;;16.70;;
14516;SDS011;7344;50.864;4.362;2024-01-07T12:00:37;28.03;;;18.33;;
14516;SDS011;7344;50.864;4.362;2024-01-07T12:03:03;27.83;;;16.70;;
14516;SDS011;7344;50.864;4.362;2024-01-07T12:05:29;26.03;;;16.90;;
14516;SDS011;7344;50.864;4.362;2024-01-07T12:07:55;26.03;;;16.57;;
14516;SDS011;7344;50.864;4.362;2024-01-07T12:10:22;24.50;;;14.60;;
14516;SDS011;7344;50.864;4.362;2024-01-07T12:12:48;24.33;;;15.20;;
14516;SDS011;7344;50.864;4.362;2024-01-07T12:15:15;25.23;;;16.07;;
14516;SDS011;7344;50.864;4.362;2024-01-07T12:17:42;24.23;;;16.07;;
14516;SDS011;7344;50.864;4.362;2024-01-07T12:20:08;21.57;;;14.97;;
14516;SDS011;7344;50.864;4.362;2024-01-07T12:22:37;18.77;;;13.10;;
14516;SDS011;7344;50.864;4.362;2024-01-07T12:25:04;17.77;;;10.43;;
14516;SDS011;7344;50.864;4.362;2024-01-07T12:27:31;25.87;;;15.43;;
14516;SDS011;7344;50.864;4.362;2024-01-07T12:29:57;25.40;;;16.17;;
14516;SDS011;7344;50.864;4.362;2024-01-07T12:32:25;23.43;;;14.17;;
14516;SDS011;7344;50.864;4.362;2024-01-07T12:34:51;21.57;;;14.57;;
14516;SDS011;7344;50.864;4.362;2024-01-07T12:37:17;26.63;;;13.83;;
14516;SDS011;7344;50.864;4.362;2024-01-07T12:39:42;24.00;;;14.90;;
14516;SDS011;7344;50.864;4.362;2024-01-07T12:42:08;21.33;;;14.83;;
14516;SDS011;7344;50.864;4.362;2024-01-07T12:44:34;24.73;;;14.73;;
14516;SDS011;7344;50.864;4.362;2024-01-07T12:47:01;20.60;;;13.83;;
14516;SDS011;7344;50.864;4.362;2024-01-07T12:49:28;25.07;;;15.70;;
14516;SDS011;7344;50.864;4.362;2024-01-07T12:51:53;23.27;;;14.50;;
14516;SDS011;7344;50.864;4.362;2024-01-07T12:54:19;25.00;;;15.27;;
14516;SDS011;7344;50.864;4.362;2024-01-07T12:56:45;21.47;;;12.87;;
14516;SDS011;7344;50.864;4.362;2024-01-07T12:59:11;24.90;;;15.30;;
14516;SDS011;7344;50.864;4.362;2024-01-07T13:01:37;21.33;;;13.20;;
14516;SDS011;7344;50.864;4.362;2024-01-07T13:04:02;22.17;;;14.77;;
14516;SDS011;7344;50.864;4.362;2024-01-07T13:06:28;25.67;;;15.63;;
14516;SDS011;7344;50.864;4.362;2024-01-07T13:08:54;21.70;;;14.90;;
14516;SDS011;7344;50.864;4.362;2024-01-07T13:11:19;23.90;;;16.03;;
14516;SDS011;7344;50.864;4.362;2024-01-07T13:13:45;22.43;;;15.67;;
14516;SDS011;7344;50.864;4.362;2024-01-07T13:16:11;20.67;;;15.20;;
14516;SDS011;7344;50.864;4.362;2024-01-07T13:18:37;17.73;;;13.47;;
14516;SDS011;7344;50.864;4.362;2024-01-07T13:21:03;20.90;;;14.07;;
14516;SDS011;7344;50.864;4.362;2024-01-07T13:23:31;22.67;;;14.80;;
14516;SDS011;7344;50.864;4.362;2024-01-07T13:25:57;23.30;;;15.70;;
14516;SDS011;7344;50.864;4.362;2024-01-07T13:28:23;19.87;;;15.17;;
14516;SDS011;7344;50.864;4.362;2024-01-07T13:30:48;19.90;;;13.30;;
14516;SDS011;7344;50.864;4.362;2024-01-07T13:33:14;21.60;;;15.03;;
14516;SDS011;7344;50.864;4.362;2024-01-07T13:35:42;18.57;;;13.60;;
14516;SDS011;7344;50.864;4.362;2024-01-07T13:38:08;21.70;;;15.27;;
14516;SDS011;7344;50.864;4.362;2024-01-07T13:40:34;20.33;;;14.43;;
14516;SDS011;7344;50.864;4.362;2024-01-07T13:43:00;18.53;;;12.67;;
14516;SDS011;7344;50.864;4.362;2024-01-07T13:45:25;19.33;;;13.47;;
14516;SDS011;7344;50.864;4.362;2024-01-07T13:47:51;16.87;;;12.23;;
14516;SDS011;7344;50.864;4.362;2024-01-07T13:50:17;22.77;;;14.93;;
14516;SDS011;7344;50.864;4.362;2024-01-07T13:52:43;17.87;;;12.00;;
14516;SDS011;7344;50.864;4.362;2024-01-07T13:55:08;16.10;;;11.53;;
14516;SDS011;7344;50.864;4.362;2024-01-07T13:57:34;15.77;;;11.17;;
14516;SDS011;7344;50.864;4.362;2024-01-07T14:00:00;16.37;;;13.03;;
14516;SDS011;7344;50.864;4.362;2024-01-07T14:02:33;17.50;;;12.67;;
14516;SDS011;7344;50.864;4.362;2024-01-07T14:04:59;12.20;;;9.07;;
14516;SDS011;7344;50.864;4.362;2024-01-07T14:07:24;19.00;;;13.53;;
14516;SDS011;7344;50.864;4.362;2024-01-07T14:09:51;16.53;;;11.40;;
14516;SDS011;7344;50.864;4.362;2024-01-07T14:12:17;17.40;;;12.67;;
14516;SDS011;7344;50.864;4.362;2024-01-07T14:14:43;18.73;;;14.73;;
14516;SDS011;7344;50.864;4.362;2024-01-07T14:17:08;22.07;;;13.57;;
14516;SDS011;7344;50.864;4.362;2024-01-07T14:19:34;18.03;;;13.73;;
14516;SDS011;7344;50.864;4.362;2024-01-07T14:21:59;16.27;;;12.87;;
14516;SDS011;7344;50.864;4.362;2024-01-07T14:24:26;16.57;;;11.97;;
14516;SDS011;7344;50.864;4.362;2024-01-07T14:26:51;18.93;;;13.80;;
14516;SDS011;7344;50.864;4.362;2024-01-07T14:29:17;17.33;;;13.63;;
14516;SDS011;7344;50.864;4.362;2024-01-07T14:31:42;18.53;;;14.40;;
14516;SDS011;7344;50.864;4.362;2024-01-07T14:34:08;15.73;;;11.63;;